sensor_id;sensor_type;location;lat;lon;timestamp;pressure;altitude;pressure_sealevel;temperature;humidity
21520;BME280;10921;53.614;9.882;2023-04-07T00:00:37;101524.38;;;7.03;50.41
21520;BME280;10921;53.614;9.882;2023-04-07T00:03:03;101538.84;;;7.12;50.50
21520;BME280;10921;53.614;9.882;2023-04-07T00:05:32;101507.47;;;6.91;50.47
21520;BME280;10921;53.614;9.882;2023-04-07T00:07:59;101510.22;;;6.90;50.26
21520;BME280;10921;53.614;9.882;2023-04-07T00:10:26;101538.09;;;7.10;50.63
21520;BME280;10921;53.614;9.882;2023-04-07T00:12:52;101538.84;;;7.12;50.64
21520;BME280;10921;53.614;9.882;2023-04-07T00:15:18;101487.19;;;6.78;50.63
21520;BME280;10921;53.614;9.882;2023-04-07T00:17:45;101533.66;;;7.10;51.13
21520;BME280;10921;53.614;9.882;2023-04-07T00:20:12;101529.91;;;7.00;50.77
21520;BME280;10921;53.614;9.882;2023-04-07T00:22:39;101537.34;;;7.07;51.04
21520;BME280;10921;53.614;9.882;2023-04-07T00:25:06;101531.38;;;7.04;50.97
21520;BME280;10921;53.614;9.882;2023-04-07T00:27:35;101533.94;;;7.05;50.46
21520;BME280;10921;53.614;9.882;2023-04-07T00:30:02;101504.41;;;6.85;50.72
21520;BME280;10921;53.614;9.882;2023-04-07T00:32:29;101538.41;;;7.05;50.78
21520;BME280;10921;53.614;9.882;2023-04-07T00:34:55;101532.25;;;7.04;50.67
21520;BME280;10921;53.614;9.882;2023-04-07T00:37:22;101542.13;;;7.02;50.98
21520;BME280;10921;53.614;9.882;2023-04-07T00:39:51;101545.50;;;7.04;50.58
21520;BME280;10921;53.614;9.882;2023-04-07T00:42:18;101544.66;;;7.04;50.43
21520;BME280;10921;53.614;9.882;2023-04-07T00:44:44;101542.00;;;7.04;50.54
21520;BME280;10921;53.614;9.882;2023-04-07T00:47:11;101506.19;;;6.84;50.52
21520;BME280;10921;53.614;9.882;2023-04-07T00:49:37;101526.25;;;6.88;50.67
21520;BME280;10921;53.614;9.882;2023-04-07T00:52:04;101523.72;;;6.87;50.88
21520;BME280;10921;53.614;9.882;2023-04-07T00:54:32;101520.31;;;6.85;50.72
21520;BME280;10921;53.614;9.882;2023-04-07T00:56:58;101543.47;;;6.95;51.03
21520;BME280;10921;53.614;9.882;2023-04-07T00:59:28;101540.16;;;6.92;50.67
21520;BME280;10921;53.614;9.882;2023-04-07T01:04:31;101535.19;;;6.87;51.57
21520;BME280;10921;53.614;9.882;2023-04-07T01:07:08;101523.06;;;6.83;51.19
21520;BME280;10921;53.614;9.882;2023-04-07T01:09:42;101533.88;;;6.80;51.29
21520;BME280;10921;53.614;9.882;2023-04-07T01:12:18;101531.50;;;6.76;51.55
21520;BME280;10921;53.614;9.882;2023-04-07T01:14:51;101540.22;;;6.78;51.89
21520;BME280;10921;53.614;9.882;2023-04-07T01:17:19;101515.66;;;6.61;51.54
21520;BME280;10921;53.614;9.882;2023-04-07T01:20:02;101528.34;;;6.70;51.48
21520;BME280;10921;53.614;9.882;2023-04-07T01:22:41;101531.47;;;6.63;51.70
21520;BME280;10921;53.614;9.882;2023-04-07T01:30:45;101528.09;;;6.47;51.85
21520;BME280;10921;53.614;9.882;2023-04-07T01:33:13;101534.53;;;6.43;51.76
21520;BME280;10921;53.614;9.882;2023-04-07T01:35:41;101540.50;;;6.46;52.30
21520;BME280;10921;53.614;9.882;2023-04-07T01:38:09;101505.63;;;6.25;52.64
21520;BME280;10921;53.614;9.882;2023-04-07T01:40:38;101540.69;;;6.43;52.44
21520;BME280;10921;53.614;9.882;2023-04-07T01:43:05;101539.97;;;6.41;52.45
21520;BME280;10921;53.614;9.882;2023-04-07T01:45:34;101533.16;;;6.37;52.84
21520;BME280;10921;53.614;9.882;2023-04-07T01:48:04;101549.06;;;6.37;52.58
21520;BME280;10921;53.614;9.882;2023-04-07T01:50:32;101537.69;;;6.35;52.69
21520;BME280;10921;53.614;9.882;2023-04-07T01:52:59;101522.00;;;6.18;52.85
21520;BME280;10921;53.614;9.882;2023-04-07T01:55:27;101541.56;;;6.29;52.80
21520;BME280;10921;53.614;9.882;2023-04-07T01:57:53;101523.03;;;6.15;52.58
21520;BME280;10921;53.614;9.882;2023-04-07T02:00:20;101544.63;;;6.23;52.61
21520;BME280;10921;53.614;9.882;2023-04-07T02:02:48;101533.75;;;6.14;52.83
21520;BME280;10921;53.614;9.882;2023-04-07T02:05:19;101545.94;;;6.16;53.09
21520;BME280;10921;53.614;9.882;2023-04-07T02:07:59;101546.03;;;6.15;52.87
21520;BME280;10921;53.614;9.882;2023-04-07T02:10:28;101543.56;;;6.12;53.11
21520;BME280;10921;53.614;9.882;2023-04-07T02:12:55;101543.69;;;6.10;52.90
21520;BME280;10921;53.614;9.882;2023-04-07T02:15:24;101540.47;;;6.05;53.09
21520;BME280;10921;53.614;9.882;2023-04-07T02:17:53;101553.81;;;6.04;53.38
21520;BME280;10921;53.614;9.882;2023-04-07T02:20:22;101506.88;;;5.77;53.31
21520;BME280;10921;53.614;9.882;2023-04-07T02:22:49;101538.59;;;5.93;53.37
21520;BME280;10921;53.614;9.882;2023-04-07T02:25:27;101541.16;;;5.94;53.01
21520;BME280;10921;53.614;9.882;2023-04-07T02:27:55;101532.03;;;5.84;53.39
21520;BME280;10921;53.614;9.882;2023-04-07T02:30:23;101514.16;;;5.74;53.38
21520;BME280;10921;53.614;9.882;2023-04-07T02:32:49;101534.97;;;5.80;53.50
21520;BME280;10921;53.614;9.882;2023-04-07T02:35:17;101543.66;;;5.82;53.46
21520;BME280;10921;53.614;9.882;2023-04-07T02:37:44;101538.94;;;5.73;53.83
21520;BME280;10921;53.614;9.882;2023-04-07T02:40:12;101540.91;;;5.69;53.77
21520;BME280;10921;53.614;9.882;2023-04-07T02:42:38;101560.03;;;5.74;53.79
21520;BME280;10921;53.614;9.882;2023-04-07T02:45:06;101556.78;;;5.69;53.72
21520;BME280;10921;53.614;9.882;2023-04-07T02:47:33;101562.09;;;5.69;54.12
21520;BME280;10921;53.614;9.882;2023-04-07T02:50:00;101528.13;;;5.47;54.22
21520;BME280;10921;53.614;9.882;2023-04-07T02:52:27;101560.69;;;5.63;53.78
21520;BME280;10921;53.614;9.882;2023-04-07T02:54:54;101488.47;;;5.17;54.18
21520;BME280;10921;53.614;9.882;2023-04-07T02:57:20;101541.63;;;5.43;54.13
21520;BME280;10921;53.614;9.882;2023-04-07T02:59:47;101563.84;;;5.54;54.21
21520;BME280;10921;53.614;9.882;2023-04-07T03:02:13;101565.84;;;5.51;54.35
21520;BME280;10921;53.614;9.882;2023-04-07T03:04:41;101567.91;;;5.46;54.39
21520;BME280;10921;53.614;9.882;2023-04-07T03:07:07;101553.06;;;5.43;54.30
21520;BME280;10921;53.614;9.882;2023-04-07T03:09:34;101562.41;;;5.35;54.30
21520;BME280;10921;53.614;9.882;2023-04-07T03:12:00;101568.28;;;5.40;54.49
21520;BME280;10921;53.614;9.882;2023-04-07T03:14:27;101560.13;;;5.28;54.47
21520;BME280;10921;53.614;9.882;2023-04-07T03:16:53;101548.09;;;5.23;54.58
21520;BME280;10921;53.614;9.882;2023-04-07T03:19:21;101583.75;;;5.32;54.72
21520;BME280;10921;53.614;9.882;2023-04-07T03:21:48;101532.34;;;5.06;55.16
21520;BME280;10921;53.614;9.882;2023-04-07T03:24:15;101566.34;;;5.27;55.27
21520;BME280;10921;53.614;9.882;2023-04-07T03:26:41;101555.19;;;5.22;54.79
21520;BME280;10921;53.614;9.882;2023-04-07T03:29:08;101558.97;;;5.18;55.09
21520;BME280;10921;53.614;9.882;2023-04-07T03:31:34;101565.59;;;5.25;55.25
21520;BME280;10921;53.614;9.882;2023-04-07T03:34:03;101556.31;;;5.18;54.80
21520;BME280;10921;53.614;9.882;2023-04-07T03:36:30;101552.13;;;5.14;55.29
21520;BME280;10921;53.614;9.882;2023-04-07T03:38:57;101575.41;;;5.23;54.95
21520;BME280;10921;53.614;9.882;2023-04-07T03:41:24;101578.06;;;5.23;55.15
21520;BME280;10921;53.614;9.882;2023-04-07T03:43:50;101575.41;;;5.23;54.89
21520;BME280;10921;53.614;9.882;2023-04-07T03:46:20;101561.88;;;5.14;55.22
21520;BME280;10921;53.614;9.882;2023-04-07T03:48:46;101578.22;;;5.20;54.97
21520;BME280;10921;53.614;9.882;2023-04-07T03:51:14;101584.66;;;5.16;55.23
21520;BME280;10921;53.614;9.882;2023-04-07T03:53:41;101586.53;;;5.14;55.07
21520;BME280;10921;53.614;9.882;2023-04-07T03:56:07;101584.91;;;5.12;55.16
21520;BME280;10921;53.614;9.882;2023-04-07T03:58:34;101590.38;;;5.09;55.32
21520;BME280;10921;53.614;9.882;2023-04-07T04:01:01;101579.31;;;5.02;55.52
21520;BME280;10921;53.614;9.882;2023-04-07T04:03:28;101580.94;;;4.89;55.65
21520;BME280;10921;53.614;9.882;2023-04-07T04:05:54;101591.94;;;4.97;55.76
21520;BME280;10921;53.614;9.882;2023-04-07T04:08:21;101595.53;;;4.96;55.75
21520;BME280;10921;53.614;9.882;2023-04-07T04:10:47;101597.38;;;4.94;55.53
21520;BME280;10921;53.614;9.882;2023-04-07T04:13:14;101600.28;;;4.89;55.58
21520;BME280;10921;53.614;9.882;2023-04-07T04:15:40;101597.16;;;4.83;55.66
21520;BME280;10921;53.614;9.882;2023-04-07T04:18:07;101601.59;;;4.82;55.58
21520;BME280;10921;53.614;9.882;2023-04-07T04:20:33;101578.66;;;4.67;55.96
21520;BME280;10921;53.614;9.882;2023-04-07T04:23:00;101596.47;;;4.64;55.88
21520;BME280;10921;53.614;9.882;2023-04-07T04:25:27;101578.03;;;4.46;56.20
21520;BME280;10921;53.614;9.882;2023-04-07T04:27:53;101605.09;;;4.67;56.27
21520;BME280;10921;53.614;9.882;2023-04-07T04:30:19;101607.81;;;4.66;56.23
21520;BME280;10921;53.614;9.882;2023-04-07T04:32:46;101612.50;;;4.60;56.02
21520;BME280;10921;53.614;9.882;2023-04-07T04:35:13;101610.03;;;4.57;56.02
21520;BME280;10921;53.614;9.882;2023-04-07T04:37:39;101615.22;;;4.59;56.24
21520;BME280;10921;53.614;9.882;2023-04-07T04:40:06;101610.44;;;4.50;56.18
21520;BME280;10921;53.614;9.882;2023-04-07T04:42:34;101607.38;;;4.42;56.08
21520;BME280;10921;53.614;9.882;2023-04-07T04:45:01;101627.94;;;4.52;56.55
21520;BME280;10921;53.614;9.882;2023-04-07T04:47:28;101578.69;;;4.18;56.37
21520;BME280;10921;53.614;9.882;2023-04-07T04:49:54;101596.03;;;4.24;56.09
21520;BME280;10921;53.614;9.882;2023-04-07T04:52:21;101632.78;;;4.44;56.52
21520;BME280;10921;53.614;9.882;2023-04-07T04:54:51;101635.53;;;4.43;56.67
21520;BME280;10921;53.614;9.882;2023-04-07T04:57:20;101618.78;;;4.27;56.66
21520;BME280;10921;53.614;9.882;2023-04-07T04:59:47;101641.03;;;4.38;56.94
21520;BME280;10921;53.614;9.882;2023-04-07T05:02:14;101641.97;;;4.37;57.12
21520;BME280;10921;53.614;9.882;2023-04-07T05:04:41;101646.34;;;4.38;57.28
21520;BME280;10921;53.614;9.882;2023-04-07T05:07:07;101645.41;;;4.39;57.21
21520;BME280;10921;53.614;9.882;2023-04-07T05:09:34;101647.97;;;4.41;57.12
21520;BME280;10921;53.614;9.882;2023-04-07T05:12:00;101656.56;;;4.44;56.67
21520;BME280;10921;53.614;9.882;2023-04-07T05:14:27;101664.41;;;4.46;57.37
21520;BME280;10921;53.614;9.882;2023-04-07T05:16:54;101672.19;;;4.49;56.94
21520;BME280;10921;53.614;9.882;2023-04-07T05:19:20;101604.69;;;4.10;57.02
21520;BME280;10921;53.614;9.882;2023-04-07T05:21:47;101671.09;;;4.53;56.84
21520;BME280;10921;53.614;9.882;2023-04-07T05:24:13;101670.91;;;4.56;57.21
21520;BME280;10921;53.614;9.882;2023-04-07T05:26:40;101665.44;;;4.59;56.80
21520;BME280;10921;53.614;9.882;2023-04-07T05:29:06;101670.56;;;4.62;56.86
21520;BME280;10921;53.614;9.882;2023-04-07T05:31:33;101667.75;;;4.65;56.84
21520;BME280;10921;53.614;9.882;2023-04-07T05:34:02;101629.97;;;4.47;56.69
21520;BME280;10921;53.614;9.882;2023-04-07T05:36:29;101680.59;;;4.73;56.56
21520;BME280;10921;53.614;9.882;2023-04-07T05:38:56;101672.72;;;4.71;56.46
21520;BME280;10921;53.614;9.882;2023-04-07T05:41:23;101625.63;;;4.46;56.05
21520;BME280;10921;53.614;9.882;2023-04-07T05:43:49;101664.81;;;4.71;56.25
21520;BME280;10921;53.614;9.882;2023-04-07T05:46:16;101691.91;;;4.90;56.25
21520;BME280;10921;53.614;9.882;2023-04-07T05:48:43;101682.88;;;4.94;55.76
21520;BME280;10921;53.614;9.882;2023-04-07T05:51:09;101695.50;;;5.05;55.89
21520;BME280;10921;53.614;9.882;2023-04-07T05:53:36;101661.13;;;4.89;55.75
21520;BME280;10921;53.614;9.882;2023-04-07T05:56:02;101703.19;;;5.25;55.17
21520;BME280;10921;53.614;9.882;2023-04-07T05:58:29;101682.28;;;5.21;54.96
21520;BME280;10921;53.614;9.882;2023-04-07T06:00:55;101698.72;;;5.42;55.15
21520;BME280;10921;53.614;9.882;2023-04-07T06:03:22;101701.69;;;5.51;54.97
21520;BME280;10921;53.614;9.882;2023-04-07T06:05:49;101690.16;;;5.52;54.66
21520;BME280;10921;53.614;9.882;2023-04-07T06:08:15;101713.09;;;5.68;53.99
21520;BME280;10921;53.614;9.882;2023-04-07T06:10:42;101665.47;;;5.52;54.04
21520;BME280;10921;53.614;9.882;2023-04-07T06:13:09;101714.78;;;5.84;53.51
21520;BME280;10921;53.614;9.882;2023-04-07T06:15:36;101717.97;;;5.91;53.50
21520;BME280;10921;53.614;9.882;2023-04-07T06:18:02;101709.06;;;5.92;53.30
21520;BME280;10921;53.614;9.882;2023-04-07T06:20:29;101714.13;;;6.11;53.85
21520;BME280;10921;53.614;9.882;2023-04-07T06:22:56;101712.13;;;6.14;54.04
21520;BME280;10921;53.614;9.882;2023-04-07T06:25:22;101711.88;;;6.19;53.40
21520;BME280;10921;53.614;9.882;2023-04-07T06:27:49;101726.66;;;6.37;52.88
21520;BME280;10921;53.614;9.882;2023-04-07T06:30:15;101731.41;;;6.46;52.87
21520;BME280;10921;53.614;9.882;2023-04-07T06:32:42;101745.69;;;6.58;52.55
21520;BME280;10921;53.614;9.882;2023-04-07T06:35:08;101736.44;;;6.65;52.04
21520;BME280;10921;53.614;9.882;2023-04-07T06:37:35;101685.78;;;6.41;51.31
21520;BME280;10921;53.614;9.882;2023-04-07T06:40:02;101736.34;;;6.81;51.51
21520;BME280;10921;53.614;9.882;2023-04-07T06:42:28;101712.94;;;6.73;51.11
21520;BME280;10921;53.614;9.882;2023-04-07T06:44:55;101746.25;;;7.05;51.27
21520;BME280;10921;53.614;9.882;2023-04-07T06:47:22;101757.41;;;7.25;50.51
21520;BME280;10921;53.614;9.882;2023-04-07T06:49:49;101752.31;;;7.49;51.10
21520;BME280;10921;53.614;9.882;2023-04-07T06:52:16;101754.03;;;7.76;49.93
21520;BME280;10921;53.614;9.882;2023-04-07T06:54:42;101745.72;;;8.08;49.26
21520;BME280;10921;53.614;9.882;2023-04-07T06:57:09;101745.25;;;8.41;48.24
21520;BME280;10921;53.614;9.882;2023-04-07T06:59:38;101743.75;;;8.75;47.16
21520;BME280;10921;53.614;9.882;2023-04-07T07:02:04;101752.13;;;9.07;46.28
21520;BME280;10921;53.614;9.882;2023-04-07T07:04:33;101756.66;;;9.30;46.00
21520;BME280;10921;53.614;9.882;2023-04-07T07:07:00;101754.59;;;9.46;45.42
21520;BME280;10921;53.614;9.882;2023-04-07T07:09:26;101755.72;;;9.55;44.87
21520;BME280;10921;53.614;9.882;2023-04-07T07:11:53;101738.25;;;9.51;43.90
21520;BME280;10921;53.614;9.882;2023-04-07T07:14:19;101751.50;;;9.64;44.09
21520;BME280;10921;53.614;9.882;2023-04-07T07:16:46;101748.72;;;9.65;43.57
21520;BME280;10921;53.614;9.882;2023-04-07T07:19:12;101754.47;;;9.72;44.44
21520;BME280;10921;53.614;9.882;2023-04-07T07:21:40;101752.44;;;9.75;44.29
21520;BME280;10921;53.614;9.882;2023-04-07T07:24:06;101751.69;;;9.73;43.65
21520;BME280;10921;53.614;9.882;2023-04-07T07:26:33;101742.00;;;9.72;42.87
21520;BME280;10921;53.614;9.882;2023-04-07T07:28:59;101751.09;;;9.81;43.66
21520;BME280;10921;53.614;9.882;2023-04-07T07:31:26;101767.88;;;9.94;44.32
21520;BME280;10921;53.614;9.882;2023-04-07T07:33:53;101767.31;;;10.02;43.56
21520;BME280;10921;53.614;9.882;2023-04-07T07:36:19;101772.63;;;10.26;42.95
21520;BME280;10921;53.614;9.882;2023-04-07T07:38:49;101760.78;;;10.41;42.54
21520;BME280;10921;53.614;9.882;2023-04-07T07:41:15;101769.44;;;10.55;41.52
21520;BME280;10921;53.614;9.882;2023-04-07T07:43:42;101761.81;;;10.62;41.44
21520;BME280;10921;53.614;9.882;2023-04-07T07:46:08;101770.19;;;10.69;40.54
21520;BME280;10921;53.614;9.882;2023-04-07T07:48:35;101776.50;;;10.79;41.19
21520;BME280;10921;53.614;9.882;2023-04-07T07:51:01;101791.31;;;10.83;40.98
21520;BME280;10921;53.614;9.882;2023-04-07T07:53:28;101787.31;;;10.88;40.56
21520;BME280;10921;53.614;9.882;2023-04-07T07:55:54;101781.72;;;10.91;40.59
21520;BME280;10921;53.614;9.882;2023-04-07T07:58:21;101788.53;;;10.96;41.28
21520;BME280;10921;53.614;9.882;2023-04-07T08:00:48;101788.88;;;11.02;40.35
21520;BME280;10921;53.614;9.882;2023-04-07T08:03:15;101780.50;;;11.07;40.09
21520;BME280;10921;53.614;9.882;2023-04-07T08:05:42;101789.88;;;11.12;39.66
21520;BME280;10921;53.614;9.882;2023-04-07T08:08:09;101782.94;;;11.21;39.48
21520;BME280;10921;53.614;9.882;2023-04-07T08:10:36;101795.69;;;11.28;39.50
21520;BME280;10921;53.614;9.882;2023-04-07T08:13:02;101792.16;;;11.39;39.68
21520;BME280;10921;53.614;9.882;2023-04-07T08:15:30;101794.78;;;11.50;39.12
21520;BME280;10921;53.614;9.882;2023-04-07T08:17:57;101802.66;;;11.63;38.93
21520;BME280;10921;53.614;9.882;2023-04-07T08:20:26;101798.16;;;11.75;38.58
21520;BME280;10921;53.614;9.882;2023-04-07T08:22:53;101815.28;;;11.83;39.39
21520;BME280;10921;53.614;9.882;2023-04-07T08:25:19;101785.16;;;11.81;39.08
21520;BME280;10921;53.614;9.882;2023-04-07T08:27:46;101802.72;;;11.95;38.88
21520;BME280;10921;53.614;9.882;2023-04-07T08:30:13;101770.31;;;11.77;38.89
21520;BME280;10921;53.614;9.882;2023-04-07T08:32:42;101808.75;;;12.08;38.65
21520;BME280;10921;53.614;9.882;2023-04-07T08:35:10;101766.78;;;11.88;38.35
21520;BME280;10921;53.614;9.882;2023-04-07T08:37:38;101808.00;;;12.17;37.89
21520;BME280;10921;53.614;9.882;2023-04-07T08:40:05;101803.25;;;12.21;37.52
21520;BME280;10921;53.614;9.882;2023-04-07T08:42:33;101801.13;;;12.24;38.07
21520;BME280;10921;53.614;9.882;2023-04-07T08:45:03;101693.34;;;11.60;37.54
21520;BME280;10921;53.614;9.882;2023-04-07T08:47:32;101815.91;;;12.40;38.04
21520;BME280;10921;53.614;9.882;2023-04-07T08:52:42;101802.72;;;12.48;36.98
21520;BME280;10921;53.614;9.882;2023-04-07T08:55:09;101807.03;;;12.60;36.33
21520;BME280;10921;53.614;9.882;2023-04-07T08:57:36;101815.06;;;12.60;36.12
21520;BME280;10921;53.614;9.882;2023-04-07T09:00:04;101814.69;;;12.64;36.25
21520;BME280;10921;53.614;9.882;2023-04-07T09:02:39;101817.22;;;12.66;36.80
21520;BME280;10921;53.614;9.882;2023-04-07T09:05:07;101808.66;;;12.72;36.02
21520;BME280;10921;53.614;9.882;2023-04-07T09:07:35;101762.03;;;12.54;37.34
21520;BME280;10921;53.614;9.882;2023-04-07T09:10:03;101804.53;;;12.89;36.49
21520;BME280;10921;53.614;9.882;2023-04-07T09:12:32;101794.25;;;12.94;36.03
21520;BME280;10921;53.614;9.882;2023-04-07T09:14:59;101807.97;;;13.31;35.32
21520;BME280;10921;53.614;9.882;2023-04-07T09:17:27;101807.78;;;13.63;34.81
21520;BME280;10921;53.614;9.882;2023-04-07T09:19:58;101809.69;;;14.01;35.38
21520;BME280;10921;53.614;9.882;2023-04-07T09:22:35;101802.19;;;14.24;33.73
21520;BME280;10921;53.614;9.882;2023-04-07T09:25:18;101802.28;;;14.80;33.41
21520;BME280;10921;53.614;9.882;2023-04-07T09:27:58;101807.94;;;15.24;33.47
21520;BME280;10921;53.614;9.882;2023-04-07T09:30:27;101795.91;;;15.55;31.49
21520;BME280;10921;53.614;9.882;2023-04-07T09:32:54;101797.41;;;15.85;30.79
21520;BME280;10921;53.614;9.882;2023-04-07T09:35:21;101793.78;;;16.12;30.55
21520;BME280;10921;53.614;9.882;2023-04-07T09:38:08;101793.06;;;16.45;31.88
21520;BME280;10921;53.614;9.882;2023-04-07T09:40:35;101779.38;;;16.21;29.42
21520;BME280;10921;53.614;9.882;2023-04-07T09:43:05;101789.28;;;16.38;29.93
21520;BME280;10921;53.614;9.882;2023-04-07T09:45:32;101791.38;;;16.44;30.05
21520;BME280;10921;53.614;9.882;2023-04-07T09:48:05;101794.97;;;16.53;30.57
21520;BME280;10921;53.614;9.882;2023-04-07T09:50:34;101801.66;;;16.67;30.07
21520;BME280;10921;53.614;9.882;2023-04-07T09:53:01;101798.56;;;16.79;30.23
21520;BME280;10921;53.614;9.882;2023-04-07T09:55:29;101795.78;;;16.97;29.16
21520;BME280;10921;53.614;9.882;2023-04-07T09:57:56;101795.06;;;17.21;29.57
21520;BME280;10921;53.614;9.882;2023-04-07T10:00:23;101763.91;;;17.27;28.58
21520;BME280;10921;53.614;9.882;2023-04-07T10:02:50;101797.38;;;17.58;27.24
21520;BME280;10921;53.614;9.882;2023-04-07T10:05:18;101773.34;;;17.65;27.55
21520;BME280;10921;53.614;9.882;2023-04-07T10:07:51;101797.38;;;18.00;27.42
21520;BME280;10921;53.614;9.882;2023-04-07T10:10:18;101757.69;;;17.84;26.85
21520;BME280;10921;53.614;9.882;2023-04-07T10:12:44;101801.09;;;18.23;26.37
21520;BME280;10921;53.614;9.882;2023-04-07T10:15:13;101802.97;;;18.31;26.48
21520;BME280;10921;53.614;9.882;2023-04-07T10:17:46;101802.25;;;18.53;26.77
21520;BME280;10921;53.614;9.882;2023-04-07T10:20:18;101793.34;;;18.45;26.24
21520;BME280;10921;53.614;9.882;2023-04-07T10:23:06;101784.19;;;18.54;25.20
21520;BME280;10921;53.614;9.882;2023-04-07T10:25:38;101751.25;;;18.34;25.41
21520;BME280;10921;53.614;9.882;2023-04-07T10:28:07;101791.13;;;18.56;24.89
21520;BME280;10921;53.614;9.882;2023-04-07T10:30:34;101794.66;;;18.65;24.88
21520;BME280;10921;53.614;9.882;2023-04-07T10:33:01;101800.91;;;18.66;25.09
21520;BME280;10921;53.614;9.882;2023-04-07T10:36:04;101801.56;;;18.84;26.38
21520;BME280;10921;53.614;9.882;2023-04-07T10:38:31;101815.47;;;18.73;24.96
21520;BME280;10921;53.614;9.882;2023-04-07T10:40:58;101814.44;;;18.74;25.06
21520;BME280;10921;53.614;9.882;2023-04-07T10:43:40;101813.09;;;18.78;25.89
21520;BME280;10921;53.614;9.882;2023-04-07T10:46:07;101770.69;;;18.38;24.35
21520;BME280;10921;53.614;9.882;2023-04-07T10:48:33;101798.72;;;18.53;24.95
21520;BME280;10921;53.614;9.882;2023-04-07T10:53:29;101817.66;;;18.45;25.87
21520;BME280;10921;53.614;9.882;2023-04-07T10:56:05;101810.38;;;18.37;25.43
21520;BME280;10921;53.614;9.882;2023-04-07T10:58:32;101800.94;;;18.33;26.36
21520;BME280;10921;53.614;9.882;2023-04-07T11:03:27;101806.84;;;18.45;26.88
21520;BME280;10921;53.614;9.882;2023-04-07T11:11:03;101790.97;;;18.66;26.96
21520;BME280;10921;53.614;9.882;2023-04-07T11:13:40;101812.22;;;18.85;26.76
21520;BME280;10921;53.614;9.882;2023-04-07T11:16:08;101802.25;;;18.86;26.49
21520;BME280;10921;53.614;9.882;2023-04-07T11:18:36;101805.63;;;18.88;25.95
21520;BME280;10921;53.614;9.882;2023-04-07T11:21:03;101774.41;;;18.69;26.34
21520;BME280;10921;53.614;9.882;2023-04-07T11:23:41;101806.09;;;19.08;26.41
21520;BME280;10921;53.614;9.882;2023-04-07T11:26:09;101813.16;;;19.17;26.83
21520;BME280;10921;53.614;9.882;2023-04-07T11:28:50;101804.09;;;19.41;26.82
21520;BME280;10921;53.614;9.882;2023-04-07T11:31:25;101809.88;;;19.38;26.20
21520;BME280;10921;53.614;9.882;2023-04-07T11:33:53;101816.16;;;19.30;26.43
21520;BME280;10921;53.614;9.882;2023-04-07T11:36:29;101814.50;;;19.13;26.31
21520;BME280;10921;53.614;9.882;2023-04-07T11:38:56;101803.25;;;18.93;26.53
21520;BME280;10921;53.614;9.882;2023-04-07T11:41:24;101814.94;;;18.85;26.60
21520;BME280;10921;53.614;9.882;2023-04-07T11:44:09;101809.69;;;18.84;25.98
21520;BME280;10921;53.614;9.882;2023-04-07T11:46:51;101810.03;;;18.65;26.73
21520;BME280;10921;53.614;9.882;2023-04-07T11:49:18;101819.84;;;18.57;26.60
21520;BME280;10921;53.614;9.882;2023-04-07T11:51:45;101819.50;;;18.52;26.17
21520;BME280;10921;53.614;9.882;2023-04-07T11:54:12;101814.94;;;18.45;25.86
21520;BME280;10921;53.614;9.882;2023-04-07T11:56:46;101823.91;;;18.45;26.58
21520;BME280;10921;53.614;9.882;2023-04-07T11:59:23;101816.63;;;18.46;26.53
21520;BME280;10921;53.614;9.882;2023-04-07T12:01:51;101819.66;;;18.35;26.65
21520;BME280;10921;53.614;9.882;2023-04-07T12:04:22;101818.16;;;18.24;25.85
21520;BME280;10921;53.614;9.882;2023-04-07T12:06:49;101767.13;;;17.88;25.37
21520;BME280;10921;53.614;9.882;2023-04-07T12:11:53;101817.97;;;18.34;25.17
21520;BME280;10921;53.614;9.882;2023-04-07T12:14:19;101823.75;;;18.47;25.53
21520;BME280;10921;53.614;9.882;2023-04-07T12:16:46;101812.56;;;18.58;27.53
21520;BME280;10921;53.614;9.882;2023-04-07T12:19:12;101818.84;;;18.75;26.95
21520;BME280;10921;53.614;9.882;2023-04-07T12:21:39;101815.28;;;18.66;26.15
21520;BME280;10921;53.614;9.882;2023-04-07T12:24:08;101826.94;;;18.67;26.62
21520;BME280;10921;53.614;9.882;2023-04-07T12:26:35;101813.25;;;18.52;26.29
21520;BME280;10921;53.614;9.882;2023-04-07T12:29:01;101788.91;;;18.19;26.07
21520;BME280;10921;53.614;9.882;2023-04-07T12:31:31;101825.56;;;18.22;26.95
21520;BME280;10921;53.614;9.882;2023-04-07T12:33:58;101825.75;;;18.28;27.03
21520;BME280;10921;53.614;9.882;2023-04-07T12:36:25;101819.50;;;18.28;26.96
21520;BME280;10921;53.614;9.882;2023-04-07T12:38:55;101811.03;;;18.23;27.26
21520;BME280;10921;53.614;9.882;2023-04-07T12:41:23;101829.63;;;18.10;27.64
21520;BME280;10921;53.614;9.882;2023-04-07T12:43:50;101818.81;;;18.02;28.30
21520;BME280;10921;53.614;9.882;2023-04-07T12:46:17;101829.78;;;18.00;28.32
21520;BME280;10921;53.614;9.882;2023-04-07T12:48:44;101829.41;;;17.95;29.02
21520;BME280;10921;53.614;9.882;2023-04-07T12:51:11;101805.94;;;17.79;29.48
21520;BME280;10921;53.614;9.882;2023-04-07T12:53:37;101812.00;;;17.89;29.47
21520;BME280;10921;53.614;9.882;2023-04-07T12:56:04;101830.63;;;18.01;29.82
21520;BME280;10921;53.614;9.882;2023-04-07T12:58:30;101812.00;;;17.89;29.45
21520;BME280;10921;53.614;9.882;2023-04-07T13:00:57;101832.97;;;17.96;29.94
21520;BME280;10921;53.614;9.882;2023-04-07T13:03:23;101824.00;;;17.95;30.25
21520;BME280;10921;53.614;9.882;2023-04-07T13:05:50;101830.75;;;17.91;29.96
21520;BME280;10921;53.614;9.882;2023-04-07T13:08:19;101828.53;;;17.78;30.31
21520;BME280;10921;53.614;9.882;2023-04-07T13:10:46;101810.72;;;17.51;31.35
21520;BME280;10921;53.614;9.882;2023-04-07T13:13:13;101821.66;;;17.50;30.75
21520;BME280;10921;53.614;9.882;2023-04-07T13:15:39;101833.78;;;17.46;30.87
21520;BME280;10921;53.614;9.882;2023-04-07T13:18:06;101827.84;;;17.42;30.62
21520;BME280;10921;53.614;9.882;2023-04-07T13:20:33;101777.16;;;17.12;31.43
21520;BME280;10921;53.614;9.882;2023-04-07T13:23:00;101828.06;;;17.41;31.05